sensor_id;sensor_type;location;lat;lon;timestamp;P1;durP1;ratioP1;P2;durP2;ratioP2
44048;SDS011;29717;47.028;15.470;2023-06-14T00:00:33;4.43;;;3.53;;
44048;SDS011;29717;47.028;15.470;2023-06-14T00:03:00;5.32;;;3.67;;
44048;SDS011;29717;47.028;15.470;2023-06-14T00:05:27;5.75;;;3.50;;
44048;SDS011;29717;47.028;15.470;2023-06-14T00:07:55;4.75;;;3.50;;
44048;SDS011;29717;47.028;15.470;2023-06-14T00:10:22;3.75;;;3.25;;
44048;SDS011;29717;47.028;15.470;2023-06-14T00:12:49;4.10;;;3.70;;
44048;SDS011;29717;47.028;15.470;2023-06-14T00:15:15;5.05;;;3.58;;
44048;SDS011;29717;47.028;15.470;2023-06-14T00:17:44;4.00;;;3.63;;
44048;SDS011;29717;47.028;15.470;2023-06-14T00:20:12;5.57;;;4.00;;
44048;SDS011;29717;47.028;15.470;2023-06-14T00:22:39;5.13;;;4.03;;
44048;SDS011;29717;47.028;15.470;2023-06-14T00:25:06;4.28;;;3.60;;
44048;SDS011;29717;47.028;15.470;2023-06-14T00:27:33;5.72;;;3.88;;
44048;SDS011;29717;47.028;15.470;2023-06-14T00:29:59;5.80;;;3.67;;
44048;SDS011;29717;47.028;15.470;2023-06-14T00:32:26;5.00;;;3.67;;
44048;SDS011;29717;47.028;15.470;2023-06-14T00:34:54;3.90;;;3.55;;
44048;SDS011;29717;47.028;15.470;2023-06-14T00:37:21;4.10;;;3.65;;
44048;SDS011;29717;47.028;15.470;2023-06-14T00:39:48;6.50;;;3.65;;
44048;SDS011;29717;47.028;15.470;2023-06-14T00:42:22;4.32;;;3.90;;
44048;SDS011;29717;47.028;15.470;2023-06-14T00:44:49;6.05;;;3.83;;
44048;SDS011;29717;47.028;15.470;2023-06-14T00:47:16;5.05;;;3.78;;
44048;SDS011;29717;47.028;15.470;2023-06-14T00:49:42;6.18;;;3.70;;
44048;SDS011;29717;47.028;15.470;2023-06-14T00:52:11;3.92;;;3.50;;
44048;SDS011;29717;47.028;15.470;2023-06-14T00:54:40;3.55;;;3.20;;
44048;SDS011;29717;47.028;15.470;2023-06-14T00:57:06;4.13;;;3.33;;
44048;SDS011;29717;47.028;15.470;2023-06-14T00:59:34;4.70;;;3.60;;
44048;SDS011;29717;47.028;15.470;2023-06-14T01:02:02;4.65;;;4.05;;
44048;SDS011;29717;47.028;15.470;2023-06-14T01:04:29;4.50;;;3.67;;
44048;SDS011;29717;47.028;15.470;2023-06-14T01:06:57;4.32;;;3.65;;
44048;SDS011;29717;47.028;15.470;2023-06-14T01:09:31;5.35;;;3.90;;
44048;SDS011;29717;47.028;15.470;2023-06-14T01:12:00;4.22;;;3.90;;
44048;SDS011;29717;47.028;15.470;2023-06-14T01:14:31;4.45;;;3.72;;
44048;SDS011;29717;47.028;15.470;2023-06-14T01:17:00;4.25;;;3.67;;
44048;SDS011;29717;47.028;15.470;2023-06-14T01:19:28;5.22;;;4.32;;
44048;SDS011;29717;47.028;15.470;2023-06-14T01:21:56;5.57;;;4.22;;
44048;SDS011;29717;47.028;15.470;2023-06-14T01:24:25;7.65;;;4.10;;
44048;SDS011;29717;47.028;15.470;2023-06-14T01:26:57;4.88;;;4.00;;
44048;SDS011;29717;47.028;15.470;2023-06-14T01:29:24;6.90;;;4.50;;
44048;SDS011;29717;47.028;15.470;2023-06-14T01:31:53;4.88;;;4.38;;
44048;SDS011;29717;47.028;15.470;2023-06-14T01:34:19;4.53;;;4.10;;
44048;SDS011;29717;47.028;15.470;2023-06-14T01:36:46;6.65;;;4.00;;
44048;SDS011;29717;47.028;15.470;2023-06-14T01:39:14;4.63;;;3.83;;
44048;SDS011;29717;47.028;15.470;2023-06-14T01:41:43;4.20;;;3.70;;
44048;SDS011;29717;47.028;15.470;2023-06-14T01:44:10;5.32;;;3.80;;
44048;SDS011;29717;47.028;15.470;2023-06-14T01:46:38;5.28;;;4.13;;
44048;SDS011;29717;47.028;15.470;2023-06-14T01:49:05;4.50;;;4.10;;
44048;SDS011;29717;47.028;15.470;2023-06-14T01:51:32;6.95;;;4.28;;
44048;SDS011;29717;47.028;15.470;2023-06-14T01:53:59;4.65;;;3.60;;
44048;SDS011;29717;47.028;15.470;2023-06-14T01:56:25;5.00;;;3.72;;
44048;SDS011;29717;47.028;15.470;2023-06-14T01:58:53;5.43;;;4.30;;
44048;SDS011;29717;47.028;15.470;2023-06-14T02:01:21;5.25;;;4.03;;
44048;SDS011;29717;47.028;15.470;2023-06-14T02:03:48;5.15;;;4.15;;
44048;SDS011;29717;47.028;15.470;2023-06-14T02:06:16;4.55;;;3.92;;
44048;SDS011;29717;47.028;15.470;2023-06-14T02:08:43;4.20;;;3.83;;
44048;SDS011;29717;47.028;15.470;2023-06-14T02:11:10;4.55;;;3.85;;
44048;SDS011;29717;47.028;15.470;2023-06-14T02:13:37;4.30;;;3.90;;
44048;SDS011;29717;47.028;15.470;2023-06-14T02:16:05;4.70;;;4.30;;
44048;SDS011;29717;47.028;15.470;2023-06-14T02:18:32;6.43;;;3.92;;
44048;SDS011;29717;47.028;15.470;2023-06-14T02:20:58;5.03;;;4.18;;
44048;SDS011;29717;47.028;15.470;2023-06-14T02:23:25;5.30;;;4.13;;
44048;SDS011;29717;47.028;15.470;2023-06-14T02:25:52;6.35;;;4.55;;
44048;SDS011;29717;47.028;15.470;2023-06-14T02:28:19;6.22;;;3.67;;
44048;SDS011;29717;47.028;15.470;2023-06-14T02:30:45;4.18;;;3.75;;
44048;SDS011;29717;47.028;15.470;2023-06-14T02:33:14;4.22;;;3.83;;
44048;SDS011;29717;47.028;15.470;2023-06-14T02:35:40;4.57;;;3.70;;
44048;SDS011;29717;47.028;15.470;2023-06-14T02:38:07;5.50;;;4.00;;
44048;SDS011;29717;47.028;15.470;2023-06-14T02:40:34;4.20;;;3.80;;
44048;SDS011;29717;47.028;15.470;2023-06-14T02:43:01;5.65;;;4.55;;
44048;SDS011;29717;47.028;15.470;2023-06-14T02:45:28;5.90;;;4.05;;
44048;SDS011;29717;47.028;15.470;2023-06-14T02:47:55;4.28;;;3.65;;
44048;SDS011;29717;47.028;15.470;2023-06-14T02:50:23;4.38;;;3.83;;
44048;SDS011;29717;47.028;15.470;2023-06-14T02:52:50;3.78;;;3.45;;
44048;SDS011;29717;47.028;15.470;2023-06-14T02:55:18;5.60;;;3.50;;
44048;SDS011;29717;47.028;15.470;2023-06-14T02:57:44;6.63;;;3.90;;
44048;SDS011;29717;47.028;15.470;2023-06-14T03:00:13;5.30;;;3.58;;
44048;SDS011;29717;47.028;15.470;2023-06-14T03:02:39;3.67;;;3.38;;
44048;SDS011;29717;47.028;15.470;2023-06-14T03:05:08;4.13;;;3.72;;
44048;SDS011;29717;47.028;15.470;2023-06-14T03:07:36;7.35;;;3.58;;
44048;SDS011;29717;47.028;15.470;2023-06-14T03:10:06;4.75;;;4.05;;
44048;SDS011;29717;47.028;15.470;2023-06-14T03:12:34;6.85;;;3.92;;
44048;SDS011;29717;47.028;15.470;2023-06-14T03:15:01;6.20;;;4.32;;
44048;SDS011;29717;47.028;15.470;2023-06-14T03:17:29;4.30;;;3.70;;
44048;SDS011;29717;47.028;15.470;2023-06-14T03:19:58;6.65;;;4.00;;
44048;SDS011;29717;47.028;15.470;2023-06-14T03:22:25;4.10;;;3.70;;
44048;SDS011;29717;47.028;15.470;2023-06-14T03:24:55;4.30;;;3.83;;
44048;SDS011;29717;47.028;15.470;2023-06-14T03:27:22;5.32;;;4.15;;
44048;SDS011;29717;47.028;15.470;2023-06-14T03:29:49;3.90;;;3.55;;
44048;SDS011;29717;47.028;15.470;2023-06-14T03:32:16;4.82;;;3.70;;
44048;SDS011;29717;47.028;15.470;2023-06-14T03:34:43;8.07;;;3.63;;
44048;SDS011;29717;47.028;15.470;2023-06-14T03:37:10;4.68;;;4.20;;
44048;SDS011;29717;47.028;15.470;2023-06-14T03:39:37;5.35;;;3.50;;
44048;SDS011;29717;47.028;15.470;2023-06-14T03:42:12;5.45;;;4.00;;
44048;SDS011;29717;47.028;15.470;2023-06-14T03:44:39;7.15;;;4.00;;
44048;SDS011;29717;47.028;15.470;2023-06-14T03:47:06;4.80;;;4.30;;
44048;SDS011;29717;47.028;15.470;2023-06-14T03:49:33;4.18;;;3.53;;
44048;SDS011;29717;47.028;15.470;2023-06-14T03:52:00;5.60;;;3.88;;
44048;SDS011;29717;47.028;15.470;2023-06-14T03:54:27;5.05;;;4.00;;
44048;SDS011;29717;47.028;15.470;2023-06-14T03:56:57;4.95;;;4.38;;
44048;SDS011;29717;47.028;15.470;2023-06-14T03:59:26;6.65;;;4.28;;
44048;SDS011;29717;47.028;15.470;2023-06-14T04:01:53;4.10;;;3.67;;
44048;SDS011;29717;47.028;15.470;2023-06-14T04:04:20;5.60;;;4.07;;
44048;SDS011;29717;47.028;15.470;2023-06-14T04:06:54;5.95;;;4.20;;
44048;SDS011;29717;47.028;15.470;2023-06-14T04:09:22;4.40;;;4.00;;
44048;SDS011;29717;47.028;15.470;2023-06-14T04:11:50;6.38;;;4.32;;
44048;SDS011;29717;47.028;15.470;2023-06-14T04:14:17;4.60;;;3.58;;
44048;SDS011;29717;47.028;15.470;2023-06-14T04:16:46;4.30;;;3.70;;
44048;SDS011;29717;47.028;15.470;2023-06-14T04:19:13;5.80;;;3.50;;
44048;SDS011;29717;47.028;15.470;2023-06-14T04:21:39;4.28;;;3.88;;
44048;SDS011;29717;47.028;15.470;2023-06-14T04:24:06;6.65;;;3.95;;
44048;SDS011;29717;47.028;15.470;2023-06-14T04:26:38;4.57;;;4.10;;
44048;SDS011;29717;47.028;15.470;2023-06-14T04:29:05;5.13;;;3.78;;
44048;SDS011;29717;47.028;15.470;2023-06-14T04:31:32;4.20;;;3.65;;
44048;SDS011;29717;47.028;15.470;2023-06-14T04:34:00;3.92;;;3.53;;
44048;SDS011;29717;47.028;15.470;2023-06-14T04:36:31;6.68;;;3.80;;
44048;SDS011;29717;47.028;15.470;2023-06-14T04:39:00;6.68;;;3.67;;
44048;SDS011;29717;47.028;15.470;2023-06-14T04:41:28;6.57;;;4.15;;
44048;SDS011;29717;47.028;15.470;2023-06-14T04:43:56;4.30;;;3.90;;
44048;SDS011;29717;47.028;15.470;2023-06-14T04:46:26;3.88;;;3.58;;
44048;SDS011;29717;47.028;15.470;2023-06-14T04:48:54;4.70;;;3.97;;
44048;SDS011;29717;47.028;15.470;2023-06-14T04:51:23;6.10;;;4.00;;
44048;SDS011;29717;47.028;15.470;2023-06-14T04:53:55;4.38;;;3.60;;
44048;SDS011;29717;47.028;15.470;2023-06-14T04:56:23;5.03;;;3.80;;
44048;SDS011;29717;47.028;15.470;2023-06-14T04:58:50;4.00;;;3.60;;
44048;SDS011;29717;47.028;15.470;2023-06-14T05:01:17;4.35;;;3.58;;
44048;SDS011;29717;47.028;15.470;2023-06-14T05:03:44;7.18;;;3.60;;
44048;SDS011;29717;47.028;15.470;2023-06-14T05:06:14;7.10;;;3.95;;
44048;SDS011;29717;47.028;15.470;2023-06-14T05:08:42;5.75;;;3.90;;
44048;SDS011;29717;47.028;15.470;2023-06-14T05:11:09;5.72;;;3.88;;
44048;SDS011;29717;47.028;15.470;2023-06-14T05:13:36;4.88;;;3.95;;
44048;SDS011;29717;47.028;15.470;2023-06-14T05:16:05;3.83;;;3.53;;
44048;SDS011;29717;47.028;15.470;2023-06-14T05:18:32;4.60;;;3.70;;
44048;SDS011;29717;47.028;15.470;2023-06-14T05:20:59;5.50;;;3.83;;
44048;SDS011;29717;47.028;15.470;2023-06-14T05:23:26;5.22;;;3.60;;
44048;SDS011;29717;47.028;15.470;2023-06-14T05:25:54;5.70;;;3.78;;
44048;SDS011;29717;47.028;15.470;2023-06-14T05:28:22;7.22;;;3.75;;
44048;SDS011;29717;47.028;15.470;2023-06-14T05:30:49;6.32;;;4.10;;
44048;SDS011;29717;47.028;15.470;2023-06-14T05:33:16;5.75;;;3.60;;
44048;SDS011;29717;47.028;15.470;2023-06-14T05:35:43;6.15;;;4.00;;
44048;SDS011;29717;47.028;15.470;2023-06-14T05:38:10;4.43;;;3.78;;
44048;SDS011;29717;47.028;15.470;2023-06-14T05:40:37;5.30;;;3.65;;
44048;SDS011;29717;47.028;15.470;2023-06-14T05:43:06;6.18;;;3.92;;
44048;SDS011;29717;47.028;15.470;2023-06-14T05:45:33;5.88;;;3.53;;
44048;SDS011;29717;47.028;15.470;2023-06-14T05:47:59;5.18;;;4.18;;
44048;SDS011;29717;47.028;15.470;2023-06-14T05:50:26;5.57;;;3.85;;
44048;SDS011;29717;47.028;15.470;2023-06-14T05:52:53;4.07;;;3.65;;
44048;SDS011;29717;47.028;15.470;2023-06-14T05:55:20;6.38;;;3.97;;
44048;SDS011;29717;47.028;15.470;2023-06-14T05:57:47;4.72;;;4.10;;
44048;SDS011;29717;47.028;15.470;2023-06-14T06:00:16;5.05;;;4.03;;
44048;SDS011;29717;47.028;15.470;2023-06-14T06:02:45;7.07;;;4.22;;
44048;SDS011;29717;47.028;15.470;2023-06-14T06:05:12;7.65;;;4.07;;
44048;SDS011;29717;47.028;15.470;2023-06-14T06:07:40;5.60;;;4.15;;
44048;SDS011;29717;47.028;15.470;2023-06-14T06:10:09;4.38;;;3.80;;
44048;SDS011;29717;47.028;15.470;2023-06-14T06:12:36;5.28;;;3.80;;
44048;SDS011;29717;47.028;15.470;2023-06-14T06:15:03;5.43;;;3.75;;
44048;SDS011;29717;47.028;15.470;2023-06-14T06:17:33;10.80;;;5.20;;
44048;SDS011;29717;47.028;15.470;2023-06-14T06:19:59;6.50;;;3.97;;
44048;SDS011;29717;47.028;15.470;2023-06-14T06:22:26;4.82;;;3.90;;
44048;SDS011;29717;47.028;15.470;2023-06-14T06:24:53;5.32;;;4.25;;
44048;SDS011;29717;47.028;15.470;2023-06-14T06:27:20;9.05;;;5.22;;
44048;SDS011;29717;47.028;15.470;2023-06-14T06:29:47;9.48;;;4.82;;
44048;SDS011;29717;47.028;15.470;2023-06-14T06:32:15;10.93;;;5.25;;
44048;SDS011;29717;47.028;15.470;2023-06-14T06:34:43;6.90;;;4.55;;
44048;SDS011;29717;47.028;15.470;2023-06-14T06:37:10;6.85;;;5.20;;
44048;SDS011;29717;47.028;15.470;2023-06-14T06:39:37;8.18;;;4.90;;
44048;SDS011;29717;47.028;15.470;2023-06-14T06:42:05;9.52;;;4.72;;
44048;SDS011;29717;47.028;15.470;2023-06-14T06:44:31;9.55;;;5.05;;
44048;SDS011;29717;47.028;15.470;2023-06-14T06:46:58;6.85;;;4.53;;
44048;SDS011;29717;47.028;15.470;2023-06-14T06:49:25;7.60;;;4.80;;
44048;SDS011;29717;47.028;15.470;2023-06-14T06:52:03;7.47;;;4.35;;
44048;SDS011;29717;47.028;15.470;2023-06-14T06:54:31;7.00;;;4.03;;
44048;SDS011;29717;47.028;15.470;2023-06-14T06:56:58;13.02;;;4.35;;
44048;SDS011;29717;47.028;15.470;2023-06-14T06:59:26;5.50;;;4.40;;
44048;SDS011;29717;47.028;15.470;2023-06-14T07:01:52;6.45;;;4.50;;
44048;SDS011;29717;47.028;15.470;2023-06-14T07:04:19;6.20;;;4.35;;
44048;SDS011;29717;47.028;15.470;2023-06-14T07:06:46;9.25;;;4.82;;
44048;SDS011;29717;47.028;15.470;2023-06-14T07:09:14;6.93;;;4.60;;
44048;SDS011;29717;47.028;15.470;2023-06-14T07:11:42;7.00;;;3.92;;
44048;SDS011;29717;47.028;15.470;2023-06-14T07:14:09;7.28;;;4.38;;
44048;SDS011;29717;47.028;15.470;2023-06-14T07:16:36;8.55;;;4.60;;
44048;SDS011;29717;47.028;15.470;2023-06-14T07:19:02;5.97;;;4.43;;
44048;SDS011;29717;47.028;15.470;2023-06-14T07:21:30;7.80;;;5.28;;
44048;SDS011;29717;47.028;15.470;2023-06-14T07:23:56;6.80;;;4.35;;
44048;SDS011;29717;47.028;15.470;2023-06-14T07:26:25;7.35;;;4.85;;
44048;SDS011;29717;47.028;15.470;2023-06-14T07:28:51;8.40;;;5.00;;
44048;SDS011;29717;47.028;15.470;2023-06-14T07:31:19;8.20;;;5.07;;
44048;SDS011;29717;47.028;15.470;2023-06-14T07:33:45;5.70;;;4.53;;
44048;SDS011;29717;47.028;15.470;2023-06-14T07:36:12;7.70;;;4.68;;
44048;SDS011;29717;47.028;15.470;2023-06-14T07:38:39;8.82;;;4.50;;
44048;SDS011;29717;47.028;15.470;2023-06-14T07:41:07;5.38;;;4.22;;
44048;SDS011;29717;47.028;15.470;2023-06-14T07:43:35;6.35;;;4.72;;
44048;SDS011;29717;47.028;15.470;2023-06-14T07:46:02;8.45;;;4.82;;
44048;SDS011;29717;47.028;15.470;2023-06-14T07:48:29;4.80;;;4.25;;
44048;SDS011;29717;47.028;15.470;2023-06-14T07:50:55;5.65;;;4.90;;
44048;SDS011;29717;47.028;15.470;2023-06-14T07:53:22;5.45;;;3.85;;
44048;SDS011;29717;47.028;15.470;2023-06-14T07:55:49;6.05;;;4.35;;
44048;SDS011;29717;47.028;15.470;2023-06-14T07:58:16;6.28;;;4.80;;
44048;SDS011;29717;47.028;15.470;2023-06-14T08:00:44;5.03;;;4.25;;
44048;SDS011;29717;47.028;15.470;2023-06-14T08:03:11;5.38;;;4.05;;
44048;SDS011;29717;47.028;15.470;2023-06-14T08:05:38;5.72;;;4.60;;
44048;SDS011;29717;47.028;15.470;2023-06-14T08:08:04;8.48;;;4.70;;
44048;SDS011;29717;47.028;15.470;2023-06-14T08:10:31;9.57;;;4.65;;
44048;SDS011;29717;47.028;15.470;2023-06-14T08:12:58;5.03;;;4.47;;
44048;SDS011;29717;47.028;15.470;2023-06-14T08:15:25;6.90;;;4.55;;
44048;SDS011;29717;47.028;15.470;2023-06-14T08:17:53;4.70;;;4.28;;
44048;SDS011;29717;47.028;15.470;2023-06-14T08:20:20;4.82;;;4.35;;
44048;SDS011;29717;47.028;15.470;2023-06-14T08:22:47;5.07;;;4.57;;
44048;SDS011;29717;47.028;15.470;2023-06-14T08:25:14;5.13;;;4.30;;
44048;SDS011;29717;47.028;15.470;2023-06-14T08:27:40;7.97;;;5.20;;
44048;SDS011;29717;47.028;15.470;2023-06-14T08:30:08;5.75;;;4.60;;
44048;SDS011;29717;47.028;15.470;2023-06-14T08:32:35;8.70;;;4.60;;
44048;SDS011;29717;47.028;15.470;2023-06-14T08:35:04;6.25;;;5.10;;
44048;SDS011;29717;47.028;15.470;2023-06-14T08:37:31;5.88;;;4.78;;
44048;SDS011;29717;47.028;15.470;2023-06-14T08:39:58;5.53;;;5.03;;
44048;SDS011;29717;47.028;15.470;2023-06-14T08:42:25;8.20;;;4.50;;
44048;SDS011;29717;47.028;15.470;2023-06-14T08:44:52;8.25;;;5.45;;
44048;SDS011;29717;47.028;15.470;2023-06-14T08:47:18;5.05;;;4.50;;
44048;SDS011;29717;47.028;15.470;2023-06-14T08:49:46;5.68;;;5.05;;
44048;SDS011;29717;47.028;15.470;2023-06-14T08:52:15;7.63;;;5.18;;
44048;SDS011;29717;47.028;15.470;2023-06-14T08:54:44;4.93;;;4.43;;
44048;SDS011;29717;47.028;15.470;2023-06-14T08:57:14;8.05;;;5.00;;
44048;SDS011;29717;47.028;15.470;2023-06-14T08:59:45;6.88;;;4.70;;
44048;SDS011;29717;47.028;15.470;2023-06-14T09:02:14;4.45;;;4.05;;
44048;SDS011;29717;47.028;15.470;2023-06-14T09:04:43;5.57;;;3.67;;
44048;SDS011;29717;47.028;15.470;2023-06-14T09:07:10;4.63;;;3.75;;
44048;SDS011;29717;47.028;15.470;2023-06-14T09:09:39;4.80;;;4.30;;
44048;SDS011;29717;47.028;15.470;2023-06-14T09:12:07;4.90;;;4.18;;
44048;SDS011;29717;47.028;15.470;2023-06-14T09:14:35;5.00;;;4.55;;
44048;SDS011;29717;47.028;15.470;2023-06-14T09:17:12;6.13;;;3.90;;
44048;SDS011;29717;47.028;15.470;2023-06-14T09:19:40;8.43;;;4.38;;
44048;SDS011;29717;47.028;15.470;2023-06-14T09:22:06;4.53;;;4.00;;
44048;SDS011;29717;47.028;15.470;2023-06-14T09:24:36;5.40;;;4.28;;
44048;SDS011;29717;47.028;15.470;2023-06-14T09:27:05;5.72;;;4.80;;
44048;SDS011;29717;47.028;15.470;2023-06-14T09:29:33;4.57;;;4.18;;
44048;SDS011;29717;47.028;15.470;2023-06-14T09:32:00;6.43;;;4.60;;
44048;SDS011;29717;47.028;15.470;2023-06-14T09:34:26;5.60;;;4.95;;
44048;SDS011;29717;47.028;15.470;2023-06-14T09:37:03;5.80;;;4.70;;
44048;SDS011;29717;47.028;15.470;2023-06-14T09:39:30;6.00;;;4.60;;
44048;SDS011;29717;47.028;15.470;2023-06-14T09:41:56;5.30;;;4.75;;
44048;SDS011;29717;47.028;15.470;2023-06-14T09:44:25;7.43;;;4.80;;
44048;SDS011;29717;47.028;15.470;2023-06-14T09:46:53;7.50;;;5.25;;
44048;SDS011;29717;47.028;15.470;2023-06-14T09:49:21;7.75;;;4.80;;
44048;SDS011;29717;47.028;15.470;2023-06-14T09:51:50;6.20;;;4.78;;
44048;SDS011;29717;47.028;15.470;2023-06-14T09:54:22;5.47;;;4.97;;
44048;SDS011;29717;47.028;15.470;2023-06-14T09:56:49;6.55;;;5.15;;
44048;SDS011;29717;47.028;15.470;2023-06-14T09:59:19;5.40;;;4.57;;
44048;SDS011;29717;47.028;15.470;2023-06-14T10:01:48;5.75;;;4.60;;
44048;SDS011;29717;47.028;15.470;2023-06-14T10:04:15;6.18;;;5.00;;
44048;SDS011;29717;47.028;15.470;2023-06-14T10:06:43;5.45;;;4.90;;
44048;SDS011;29717;47.028;15.470;2023-06-14T10:09:11;5.40;;;3.92;;
44048;SDS011;29717;47.028;15.470;2023-06-14T10:11:39;4.50;;;4.10;;
44048;SDS011;29717;47.028;15.470;2023-06-14T10:14:09;4.60;;;4.18;;
44048;SDS011;29717;47.028;15.470;2023-06-14T10:16:37;4.97;;;4.43;;
44048;SDS011;29717;47.028;15.470;2023-06-14T10:19:07;5.00;;;4.20;;
44048;SDS011;29717;47.028;15.470;2023-06-14T10:21:41;4.78;;;4.28;;
44048;SDS011;29717;47.028;15.470;2023-06-14T10:24:10;5.00;;;4.03;;
44048;SDS011;29717;47.028;15.470;2023-06-14T10:26:49;6.60;;;3.80;;
44048;SDS011;29717;47.028;15.470;2023-06-14T10:29:16;6.72;;;3.38;;
44048;SDS011;29717;47.028;15.470;2023-06-14T10:31:43;3.80;;;3.50;;
44048;SDS011;29717;47.028;15.470;2023-06-14T10:34:12;4.35;;;3.30;;
44048;SDS011;29717;47.028;15.470;2023-06-14T10:36:41;6.32;;;3.17;;
44048;SDS011;29717;47.028;15.470;2023-06-14T10:39:10;3.50;;;3.20;;
44048;SDS011;29717;47.028;15.470;2023-06-14T10:41:37;4.15;;;3.15;;
44048;SDS011;29717;47.028;15.470;2023-06-14T10:46:52;3.13;;;2.70;;
44048;SDS011;29717;47.028;15.470;2023-06-14T10:49:22;3.50;;;2.97;;
44048;SDS011;29717;47.028;15.470;2023-06-14T10:52:07;3.42;;;2.75;;
44048;SDS011;29717;47.028;15.470;2023-06-14T10:54:48;3.13;;;2.22;;
44048;SDS011;29717;47.028;15.470;2023-06-14T10:57:21;2.42;;;2.10;;
44048;SDS011;29717;47.028;15.470;2023-06-14T10:59:49;3.92;;;2.28;;
44048;SDS011;29717;47.028;15.470;2023-06-14T11:02:20;6.78;;;2.25;;
44048;SDS011;29717;47.028;15.470;2023-06-14T11:04:55;2.20;;;2.00;;
44048;SDS011;29717;47.028;15.470;2023-06-14T11:07:27;5.38;;;2.50;;
44048;SDS011;29717;47.028;15.470;2023-06-14T11:10:10;2.20;;;2.00;;
44048;SDS011;29717;47.028;15.470;2023-06-14T11:12:41;2.70;;;2.15;;
44048;SDS011;29717;47.028;15.470;2023-06-14T11:15:12;3.25;;;2.40;;
44048;SDS011;29717;47.028;15.470;2023-06-14T11:17:38;3.33;;;2.65;;
44048;SDS011;29717;47.028;15.470;2023-06-14T11:20:10;2.25;;;2.08;;
44048;SDS011;29717;47.028;15.470;2023-06-14T11:22:41;2.83;;;2.50;;
44048;SDS011;29717;47.028;15.470;2023-06-14T11:25:08;2.30;;;2.10;;
44048;SDS011;29717;47.028;15.470;2023-06-14T11:27:35;3.10;;;2.63;;
44048;SDS011;29717;47.028;15.470;2023-06-14T11:30:02;2.60;;;2.40;;
44048;SDS011;29717;47.028;15.470;2023-06-14T11:32:35;2.58;;;2.08;;
44048;SDS011;29717;47.028;15.470;2023-06-14T11:35:16;3.65;;;2.63;;
44048;SDS011;29717;47.028;15.470;2023-06-14T11:37:43;3.40;;;2.40;;
44048;SDS011;29717;47.028;15.470;2023-06-14T11:40:10;3.97;;;2.60;;
44048;SDS011;29717;47.028;15.470;2023-06-14T11:42:37;5.93;;;2.53;;
44048;SDS011;29717;47.028;15.470;2023-06-14T11:45:07;2.75;;;2.45;;
44048;SDS011;29717;47.028;15.470;2023-06-14T11:47:35;2.30;;;2.10;;
44048;SDS011;29717;47.028;15.470;2023-06-14T11:50:02;4.13;;;2.72;;
44048;SDS011;29717;47.028;15.470;2023-06-14T11:52:30;3.55;;;2.63;;
44048;SDS011;29717;47.028;15.470;2023-06-14T11:54:57;4.20;;;2.63;;
44048;SDS011;29717;47.028;15.470;2023-06-14T11:57:24;4.10;;;2.25;;
44048;SDS011;29717;47.028;15.470;2023-06-14T11:59:51;2.45;;;2.25;;
44048;SDS011;29717;47.028;15.470;2023-06-14T12:02:19;5.32;;;2.55;;
44048;SDS011;29717;47.028;15.470;2023-06-14T12:04:46;2.83;;;2.60;;
44048;SDS011;29717;47.028;15.470;2023-06-14T12:07:14;3.33;;;2.25;;
44048;SDS011;29717;47.028;15.470;2023-06-14T12:10:03;3.25;;;2.30;;
44048;SDS011;29717;47.028;15.470;2023-06-14T12:12:34;4.38;;;2.42;;
44048;SDS011;29717;47.028;15.470;2023-06-14T12:15:02;2.67;;;2.47;;
44048;SDS011;29717;47.028;15.470;2023-06-14T12:17:31;3.50;;;2.88;;
44048;SDS011;29717;47.028;15.470;2023-06-14T12:19:58;4.90;;;2.70;;
44048;SDS011;29717;47.028;15.470;2023-06-14T12:22:25;3.83;;;2.75;;
44048;SDS011;29717;47.028;15.470;2023-06-14T12:24:57;3.53;;;2.30;;
44048;SDS011;29717;47.028;15.470;2023-06-14T12:27:24;3.28;;;2.92;;
44048;SDS011;29717;47.028;15.470;2023-06-14T12:30:00;3.13;;;2.83;;
44048;SDS011;29717;47.028;15.470;2023-06-14T12:32:27;3.10;;;2.53;;
44048;SDS011;29717;47.028;15.470;2023-06-14T12:34:54;3.47;;;2.95;;
44048;SDS011;29717;47.028;15.470;2023-06-14T12:37:21;4.95;;;2.60;;
44048;SDS011;29717;47.028;15.470;2023-06-14T12:39:49;4.18;;;2.70;;
44048;SDS011;29717;47.028;15.470;2023-06-14T12:42:17;2.65;;;2.45;;
44048;SDS011;29717;47.028;15.470;2023-06-14T12:44:44;2.90;;;2.58;;
44048;SDS011;29717;47.028;15.470;2023-06-14T12:47:14;4.00;;;2.58;;
44048;SDS011;29717;47.028;15.470;2023-06-14T12:49:40;5.03;;;2.42;;
44048;SDS011;29717;47.028;15.470;2023-06-14T12:52:08;3.05;;;2.63;;
44048;SDS011;29717;47.028;15.470;2023-06-14T12:54:35;3.13;;;2.30;;
44048;SDS011;29717;47.028;15.470;2023-06-14T12:57:04;2.70;;;2.50;;
44048;SDS011;29717;47.028;15.470;2023-06-14T12:59:35;3.30;;;2.83;;
44048;SDS011;29717;47.028;15.470;2023-06-14T13:02:12;3.35;;;2.58;;
44048;SDS011;29717;47.028;15.470;2023-06-14T13:04:39;4.05;;;2.97;;
44048;SDS011;29717;47.028;15.470;2023-06-14T13:07:06;3.67;;;2.70;;
44048;SDS011;29717;47.028;15.470;2023-06-14T13:09:33;2.97;;;2.72;;
44048;SDS011;29717;47.028;15.470;2023-06-14T13:12:00;2.97;;;2.67;;
44048;SDS011;29717;47.028;15.470;2023-06-14T13:14:27;4.40;;;2.90;;
44048;SDS011;29717;47.028;15.470;2023-06-14T13:16:55;3.33;;;2.90;;
44048;SDS011;29717;47.028;15.470;2023-06-14T13:19:22;3.60;;;2.90;;
44048;SDS011;29717;47.028;15.470;2023-06-14T13:21:49;4.05;;;2.80;;
44048;SDS011;29717;47.028;15.470;2023-06-14T13:24:16;4.45;;;2.90;;
44048;SDS011;29717;47.028;15.470;2023-06-14T13:26:43;4.40;;;2.80;;
44048;SDS011;29717;47.028;15.470;2023-06-14T13:29:10;4.13;;;3.33;;
44048;SDS011;29717;47.028;15.470;2023-06-14T13:31:36;3.92;;;3.00;;
44048;SDS011;29717;47.028;15.470;2023-06-14T13:34:12;4.15;;;3.45;;
44048;SDS011;29717;47.028;15.470;2023-06-14T13:36:41;3.28;;;2.97;;
44048;SDS011;29717;47.028;15.470;2023-06-14T13:39:08;4.57;;;3.35;;
44048;SDS011;29717;47.028;15.470;2023-06-14T13:41:36;5.88;;;2.97;;
44048;SDS011;29717;47.028;15.470;2023-06-14T13:44:03;3.05;;;2.72;;
44048;SDS011;29717;47.028;15.470;2023-06-14T13:46:31;2.65;;;2.45;;
44048;SDS011;29717;47.028;15.470;2023-06-14T13:48:57;3.40;;;3.10;;
44048;SDS011;29717;47.028;15.470;2023-06-14T13:51:27;3.55;;;2.85;;
44048;SDS011;29717;47.028;15.470;2023-06-14T13:53:54;3.17;;;2.88;;
44048;SDS011;29717;47.028;15.470;2023-06-14T13:56:21;3.90;;;3.10;;
44048;SDS011;29717;47.028;15.470;2023-06-14T13:58:50;3.17;;;2.70;;
44048;SDS011;29717;47.028;15.470;2023-06-14T14:01:17;4.60;;;2.80;;
44048;SDS011;29717;47.028;15.470;2023-06-14T14:03:45;2.92;;;2.70;;
44048;SDS011;29717;47.028;15.470;2023-06-14T14:06:11;4.47;;;2.70;;
44048;SDS011;29717;47.028;15.470;2023-06-14T14:08:40;3.10;;;2.83;;
44048;SDS011;29717;47.028;15.470;2023-06-14T14:11:06;3.88;;;3.13;;
44048;SDS011;29717;47.028;15.470;2023-06-14T14:13:34;2.85;;;2.65;;
44048;SDS011;29717;47.028;15.470;2023-06-14T14:16:03;3.45;;;3.15;;
44048;SDS011;29717;47.028;15.470;2023-06-14T14:18:30;6.95;;;2.90;;
44048;SDS011;29717;47.028;15.470;2023-06-14T14:20:57;3.65;;;3.25;;
44048;SDS011;29717;47.028;15.470;2023-06-14T14:23:26;5.07;;;3.10;;
44048;SDS011;29717;47.028;15.470;2023-06-14T14:25:54;4.45;;;3.13;;
44048;SDS011;29717;47.028;15.470;2023-06-14T14:28:22;4.75;;;3.20;;
44048;SDS011;29717;47.028;15.470;2023-06-14T14:30:48;3.63;;;2.95;;
44048;SDS011;29717;47.028;15.470;2023-06-14T14:33:15;4.72;;;3.83;;
44048;SDS011;29717;47.028;15.470;2023-06-14T14:35:42;6.15;;;3.28;;
44048;SDS011;29717;47.028;15.470;2023-06-14T14:38:11;3.20;;;2.90;;
44048;SDS011;29717;47.028;15.470;2023-06-14T14:40:37;3.15;;;2.85;;